• Join FlightAware (Why Join?)
  • Login
  • US Flag 
10:56PM EDT


 

Airport Tracker/Info


-or-


 

Live Flight TrackerFlight Track Log ✈ GLA171 ✈ 12-May-2013 ✈ KPIR - KMSP

Flight Track Log - Related Links

Times and Time Zones

All times are in EDT time to prevent confusion due to time zone crossing. See the GLA171 flight status page for this flight to view local times or setup timezone preferences in your user account.

Time Position Orientation Groundspeed Altitude Reporting Facility
EDT Latitude Longitude Course Direction KTS MPH feet Rate Location/Type
11:09AM 44.3589 -100.2394 87° East 158 182 3,800  Level Minneapolis Center
11:10AM 44.3803 -100.1653 68° East 171 197 6,400 2,220 Climbing Minneapolis Center
11:11AM 44.4001 -99.6983 90° East  Level FlightAware Approximate
11:11AM 44.3925 -100.0981 76° East 173 199 8,400  Level Minneapolis Center
11:12AM 44.4001 -99.6000 90° East  Level FlightAware Approximate
11:12AM 44.3964 -100.0256 86° East 183 211 10,500  Level Minneapolis Center
11:13AM 44.4012 -99.5017 87° East  Level FlightAware Approximate
11:13AM 44.3825 -99.9492 104° East 197 227 12,300  Level Minneapolis Center
11:14AM 44.4050 -99.4036 87° East  Level FlightAware Approximate
11:14AM 44.3744 -99.8683 98° East 204 235 14,300  Level Minneapolis Center
11:15AM 44.3725 -99.7867 92° East 208 239 15,900 1,440 Climbing Minneapolis Center
11:16AM 44.3703 -99.7019 92° East 215 247 17,300 1,380 Climbing Minneapolis Center
11:17AM 44.3756 -99.5997 86° East 219 252 18,800 1,320 Climbing Minneapolis Center
11:18AM 44.3778 -99.5128 88° East 223 257 20,100 1,080 Climbing Minneapolis Center
11:19AM 44.3769 -99.4247 91° East 225 259 21,100 900 Climbing Minneapolis Center
11:20AM 44.3811 -99.3406 86° East 223 257 22,000 780 Climbing Minneapolis Center
11:21AM 44.3850 -99.2544 86° East 221 254 22,700 480 Climbing Minneapolis Center
11:22AM 44.3892 -99.1642 86° East 225 259 23,000 180 Climbing Minneapolis Center
11:23AM 44.3967 -99.0681 84° East 235 270 23,100  Climbing Minneapolis Center
11:24AM 44.4064 -98.9672 82° East 246 283 23,000 -60 Descending Minneapolis Center
11:25AM 44.4114 -98.8422 87° East 259 298 23,000  Level Minneapolis Center
11:26AM 44.4169 -98.7400 86° East 263 303 23,000  Level Minneapolis Center
11:27AM 44.4314 -98.6439 78° East 259 298 23,000  Level Minneapolis Center
11:28AM 44.4369 -98.5425 86° East 259 298 23,000  Level Minneapolis Center
11:29AM 44.4361 -98.4383 91° East 265 305 23,000  Level Minneapolis Center
11:30AM 44.4386 -98.3375 88° East 264 304 23,100  Climbing Minneapolis Center
11:31AM 44.4350 -98.2350 93° East 264 304 23,100  Level Minneapolis Center
11:32AM 44.4331 -98.1119 91° East 265 305 23,100  Level Minneapolis Center
11:33AM 44.4394 -98.0106 85° East 263 303 23,100 -60 Level Minneapolis Center
11:34AM 44.4481 -97.9111 83° East 260 299 23,000  Descending Minneapolis Center
11:35AM 44.4486 -97.8072 90° East 263 303 23,100  Climbing Minneapolis Center
11:36AM 44.4406 -97.7008 96° East 270 311 23,000 -60 Descending Minneapolis Center
11:37AM 44.4300 -97.5936 98° East 276 318 23,000  Level Minneapolis Center
11:38AM 44.4233 -97.4869 95° East 277 319 23,100  Climbing Minneapolis Center
11:39AM 44.4139 -97.3778 97° East 280 322 23,100  Level Minneapolis Center
11:40AM 44.4100 -97.2475 92° East 280 322 23,100  Level Minneapolis Center
11:41AM 44.4172 -97.1394 85° East 277 319 23,100  Level Minneapolis Center
11:42AM 44.4317 -97.0361 79° East 272 313 23,100 -60 Level Minneapolis Center
11:43AM 44.4458 -96.9325 79° East 272 313 23,000 -60 Descending Minneapolis Center
11:44AM 44.4506 -96.8222 87° East 280 322 23,000 -60 Level Minneapolis Center
11:45AM 44.4464 -96.7092 93° East 288 331 22,900  Descending Minneapolis Center
11:47AM 44.4506 -96.5983 87° East 287 330 23,000  Climbing Minneapolis Center
11:48AM 44.4567 -96.4892 85° East 283 326 23,000  Level Minneapolis Center
11:49AM 44.4608 -96.3558 87° East 283 326 23,100  Climbing Minneapolis Center
11:50AM 44.4567 -96.2433 93° East 286 329 23,100 -60 Level Minneapolis Center
11:51AM 44.4506 -96.1286 94° East 293 337 23,000  Descending Minneapolis Center
11:52AM 44.4489 -96.0147 91° East 292 336 23,100  Climbing Minneapolis Center
11:53AM 44.4525 -95.9033 87° East 287 330 23,000 -60 Descending Minneapolis Center
11:54AM 44.4575 -95.7931 86° East 285 328 23,000  Level Minneapolis Center
11:55AM 44.4631 -95.6617 87° East 282 325 23,000  Level Minneapolis Center
11:56AM 44.4594 -95.5492 93° East 287 330 23,000 -60 Level Minneapolis Center
11:57AM 44.4611 -95.4386 89° East 287 330 22,900 -240 Descending Minneapolis Center
11:58AM 44.4706 -95.3328 83° East 279 321 22,500 -840 Descending Minneapolis Center
11:59AM 44.4633 -95.1794 94° East 281 323 21,100 -1,380 Descending Minneapolis Center
12:00PM 44.4686 -95.0717 86° East 280 322 19,700 -1,620 Descending Minneapolis Center
12:01PM 44.4936 -94.9806 69° East 259 298 17,900 -1,380 Descending Minneapolis Center
12:02PM 44.5300 -94.8992 58° Northeast 250 288 16,900 -1,080 Descending Minneapolis Center
12:03PM 44.5472 -94.8031 76° East 252 290 15,700 -1,140 Descending Minneapolis Center
12:04PM 44.5658 -94.7072 75° East 255 293 14,600 -1,080 Descending Minneapolis Center
12:05PM 44.5992 -94.6172 62° Northeast 246 283 13,600 -1,080 Descending Minneapolis Center
12:06PM 44.6247 -94.5269 68° East 252 290 12,500 -1,080 Descending Minneapolis Center
12:07PM 44.6428 -94.4275 76° East 262 302 11,500 -1,080 Descending Minneapolis Center
12:08PM 44.6628 -94.3292 74° East 262 302 10,300 -1,200 Descending Minneapolis Center
12:09PM 44.6894 -94.2119 72° East 262 302 9,100 -600 Descending Minneapolis Center
12:11PM 44.7022 -94.1186 79° East 241 277 9,100  Level Minneapolis Center
12:12PM 44.7094 -94.0242 84° East 243 280 9,100  Level Minneapolis Center
12:13PM 44.7236 -93.9303 78° East 246 283 9,100  Level Minneapolis Center
12:14PM 44.7447 -93.8389 72° East 246 283 9,100  Level Minneapolis Center
12:15PM 44.7711 -93.7508 67° East 243 280 9,100  Level Minneapolis Center
12:16PM 44.7953 -93.6606 69° East 248 285 9,100  Level Minneapolis Center
12:17PM 44.8169 -93.5692 71° East 246 283 9,100  Level Minneapolis Center
12:18PM 44.8428 -93.4583 72° East 247 284 9,100 -300 Level Minneapolis Center
12:19PM 44.8417 -93.3853 91° East 250 288 8,600 -540 Descending Minneapolis Center
12:20PM 44.7975 -93.2825 121° Southeast 254 292 8,100 -540 Descending Minneapolis Center
12:21PM 44.7625 -93.1872 117° Southeast 258 297 7,600 -840 Descending Minneapolis Center
12:22PM 44.7336 -93.0994 115° Southeast 248 285 6,500 -1,320 Descending Minneapolis Center
12:23PM 44.7719 -93.0642 33° Northeast 193 222 4,900 -1,680 Descending Minneapolis Center
12:24PM 44.8200 -93.0922 338° Northwest 189 217 3,100 -1,320 Descending Minneapolis Center
12:25PM 44.8456 -93.1369 309° West 146 168 2,200 -840 Descending Minneapolis Center
12:26PM 44.8622 -93.1756 301° West 118 136 1,400 -780 Descending Minneapolis Center
12:28PM 44.8667 -93.2167 349° North  Level FlightAware Approximate